sensor_id;sensor_type;location;lat;lon;timestamp;temperature;humidity
47765;DHT22;33529;49.242;8.670;2023-04-16T00:01:23;8.40;99.90
47765;DHT22;33529;49.242;8.670;2023-04-16T00:03:50;8.30;99.90
47765;DHT22;33529;49.242;8.670;2023-04-16T00:06:18;8.30;99.90
47765;DHT22;33529;49.242;8.670;2023-04-16T00:08:44;8.20;99.90
47765;DHT22;33529;49.242;8.670;2023-04-16T00:11:11;8.20;99.90
47765;DHT22;33529;49.242;8.670;2023-04-16T00:13:38;8.20;99.90
47765;DHT22;33529;49.242;8.670;2023-04-16T00:16:05;8.20;99.90
47765;DHT22;33529;49.242;8.670;2023-04-16T00:18:32;8.20;99.90
47765;DHT22;33529;49.242;8.670;2023-04-16T00:20:59;8.10;99.90
47765;DHT22;33529;49.242;8.670;2023-04-16T00:23:26;8.10;99.90
47765;DHT22;33529;49.242;8.670;2023-04-16T00:25:53;8.10;99.90
47765;DHT22;33529;49.242;8.670;2023-04-16T00:28:22;8.10;99.90
47765;DHT22;33529;49.242;8.670;2023-04-16T00:30:49;8.20;99.90
47765;DHT22;33529;49.242;8.670;2023-04-16T00:33:16;8.10;99.90
47765;DHT22;33529;49.242;8.670;2023-04-16T00:35:46;8.10;99.90
47765;DHT22;33529;49.242;8.670;2023-04-16T00:38:14;8.10;99.90
47765;DHT22;33529;49.242;8.670;2023-04-16T00:40:40;8.20;99.90
47765;DHT22;33529;49.242;8.670;2023-04-16T00:43:07;8.10;99.90
47765;DHT22;33529;49.242;8.670;2023-04-16T00:45:35;8.10;99.90
47765;DHT22;33529;49.242;8.670;2023-04-16T00:48:03;8.00;99.90
47765;DHT22;33529;49.242;8.670;2023-04-16T00:50:30;8.10;99.90
47765;DHT22;33529;49.242;8.670;2023-04-16T00:52:57;8.20;99.90
47765;DHT22;33529;49.242;8.670;2023-04-16T00:55:24;8.10;99.90
47765;DHT22;33529;49.242;8.670;2023-04-16T00:57:52;8.10;99.90
47765;DHT22;33529;49.242;8.670;2023-04-16T01:00:19;8.10;99.90
47765;DHT22;33529;49.242;8.670;2023-04-16T01:02:47;8.20;99.90
47765;DHT22;33529;49.242;8.670;2023-04-16T01:05:13;8.10;99.90
47765;DHT22;33529;49.242;8.670;2023-04-16T01:07:40;8.10;99.90
47765;DHT22;33529;49.242;8.670;2023-04-16T01:10:07;8.10;99.90
47765;DHT22;33529;49.242;8.670;2023-04-16T01:12:34;8.20;99.90
47765;DHT22;33529;49.242;8.670;2023-04-16T01:15:01;8.20;99.90
47765;DHT22;33529;49.242;8.670;2023-04-16T01:17:28;8.20;99.90
47765;DHT22;33529;49.242;8.670;2023-04-16T01:19:58;8.20;99.90
47765;DHT22;33529;49.242;8.670;2023-04-16T01:22:27;8.20;99.90
47765;DHT22;33529;49.242;8.670;2023-04-16T01:24:54;8.10;99.90
47765;DHT22;33529;49.242;8.670;2023-04-16T01:27:22;8.10;99.90
47765;DHT22;33529;49.242;8.670;2023-04-16T01:29:49;8.10;99.90
47765;DHT22;33529;49.242;8.670;2023-04-16T01:32:21;8.10;99.90
47765;DHT22;33529;49.242;8.670;2023-04-16T01:34:48;8.10;99.90
47765;DHT22;33529;49.242;8.670;2023-04-16T01:37:15;8.20;99.90
47765;DHT22;33529;49.242;8.670;2023-04-16T01:39:42;8.10;99.90
47765;DHT22;33529;49.242;8.670;2023-04-16T01:42:09;8.10;99.90
47765;DHT22;33529;49.242;8.670;2023-04-16T01:44:36;8.10;99.90
47765;DHT22;33529;49.242;8.670;2023-04-16T01:47:03;8.10;99.90
47765;DHT22;33529;49.242;8.670;2023-04-16T01:49:30;8.10;99.90
47765;DHT22;33529;49.242;8.670;2023-04-16T01:51:57;8.20;99.90
47765;DHT22;33529;49.242;8.670;2023-04-16T01:54:24;8.20;99.90
47765;DHT22;33529;49.242;8.670;2023-04-16T01:56:51;8.10;99.90
47765;DHT22;33529;49.242;8.670;2023-04-16T01:59:18;8.10;99.90
47765;DHT22;33529;49.242;8.670;2023-04-16T02:01:45;8.10;99.90
47765;DHT22;33529;49.242;8.670;2023-04-16T02:04:12;8.20;99.90
47765;DHT22;33529;49.242;8.670;2023-04-16T02:06:40;8.10;99.90
47765;DHT22;33529;49.242;8.670;2023-04-16T02:09:07;8.10;99.90
47765;DHT22;33529;49.242;8.670;2023-04-16T02:11:36;8.10;99.90
47765;DHT22;33529;49.242;8.670;2023-04-16T02:14:02;8.20;99.90
47765;DHT22;33529;49.242;8.670;2023-04-16T02:16:29;8.20;99.90
47765;DHT22;33529;49.242;8.670;2023-04-16T02:19:23;8.10;99.90
47765;DHT22;33529;49.242;8.670;2023-04-16T02:21:53;8.10;99.90
47765;DHT22;33529;49.242;8.670;2023-04-16T02:24:20;8.10;99.90
47765;DHT22;33529;49.242;8.670;2023-04-16T02:26:47;8.00;99.90
47765;DHT22;33529;49.242;8.670;2023-04-16T02:29:16;8.00;99.90
47765;DHT22;33529;49.242;8.670;2023-04-16T02:31:50;8.00;99.90
47765;DHT22;33529;49.242;8.670;2023-04-16T02:34:18;8.00;99.90
47765;DHT22;33529;49.242;8.670;2023-04-16T02:36:45;7.90;99.90
47765;DHT22;33529;49.242;8.670;2023-04-16T02:39:11;8.00;99.90
47765;DHT22;33529;49.242;8.670;2023-04-16T02:41:38;8.00;99.90
47765;DHT22;33529;49.242;8.670;2023-04-16T02:44:05;7.90;99.90
47765;DHT22;33529;49.242;8.670;2023-04-16T02:46:32;8.00;99.90
47765;DHT22;33529;49.242;8.670;2023-04-16T02:48:59;7.90;99.90
47765;DHT22;33529;49.242;8.670;2023-04-16T02:51:26;7.90;99.90
47765;DHT22;33529;49.242;8.670;2023-04-16T02:53:53;7.90;99.90
47765;DHT22;33529;49.242;8.670;2023-04-16T02:56:20;7.90;99.90
47765;DHT22;33529;49.242;8.670;2023-04-16T02:58:46;7.80;99.90
47765;DHT22;33529;49.242;8.670;2023-04-16T03:01:13;7.80;99.90
47765;DHT22;33529;49.242;8.670;2023-04-16T03:03:40;7.80;99.90
47765;DHT22;33529;49.242;8.670;2023-04-16T03:06:07;7.80;99.90
47765;DHT22;33529;49.242;8.670;2023-04-16T03:08:34;7.90;99.90
47765;DHT22;33529;49.242;8.670;2023-04-16T03:11:01;7.80;99.90
47765;DHT22;33529;49.242;8.670;2023-04-16T03:13:27;7.80;99.90
47765;DHT22;33529;49.242;8.670;2023-04-16T03:15:54;7.90;99.90
47765;DHT22;33529;49.242;8.670;2023-04-16T03:18:21;7.90;99.90
47765;DHT22;33529;49.242;8.670;2023-04-16T03:20:52;7.80;99.90
47765;DHT22;33529;49.242;8.670;2023-04-16T03:23:19;7.90;99.90
47765;DHT22;33529;49.242;8.670;2023-04-16T03:25:46;7.80;99.90
47765;DHT22;33529;49.242;8.670;2023-04-16T03:28:16;7.80;99.90
47765;DHT22;33529;49.242;8.670;2023-04-16T03:30:52;7.80;99.90
47765;DHT22;33529;49.242;8.670;2023-04-16T03:33:19;7.80;99.90
47765;DHT22;33529;49.242;8.670;2023-04-16T03:35:46;7.90;99.90
47765;DHT22;33529;49.242;8.670;2023-04-16T03:38:13;7.90;99.90
47765;DHT22;33529;49.242;8.670;2023-04-16T03:40:40;7.90;99.90
47765;DHT22;33529;49.242;8.670;2023-04-16T03:43:07;7.90;99.90
47765;DHT22;33529;49.242;8.670;2023-04-16T03:45:34;7.90;99.90
47765;DHT22;33529;49.242;8.670;2023-04-16T03:48:01;7.90;99.90
47765;DHT22;33529;49.242;8.670;2023-04-16T03:50:29;7.90;99.90
47765;DHT22;33529;49.242;8.670;2023-04-16T03:52:55;7.90;99.90
47765;DHT22;33529;49.242;8.670;2023-04-16T03:55:22;7.90;99.90
47765;DHT22;33529;49.242;8.670;2023-04-16T03:57:49;7.90;99.90
47765;DHT22;33529;49.242;8.670;2023-04-16T04:00:16;7.90;99.90
47765;DHT22;33529;49.242;8.670;2023-04-16T04:03:09;7.90;99.90
47765;DHT22;33529;49.242;8.670;2023-04-16T04:05:39;8.00;99.90
47765;DHT22;33529;49.242;8.670;2023-04-16T04:08:10;7.90;99.90
47765;DHT22;33529;49.242;8.670;2023-04-16T04:10:37;7.90;99.90
47765;DHT22;33529;49.242;8.670;2023-04-16T04:13:06;7.80;99.90
47765;DHT22;33529;49.242;8.670;2023-04-16T04:15:34;7.80;99.90
47765;DHT22;33529;49.242;8.670;2023-04-16T04:18:01;7.80;99.90
47765;DHT22;33529;49.242;8.670;2023-04-16T04:20:28;7.80;99.90
47765;DHT22;33529;49.242;8.670;2023-04-16T04:22:55;7.90;99.90
47765;DHT22;33529;49.242;8.670;2023-04-16T04:25:24;7.90;99.90
47765;DHT22;33529;49.242;8.670;2023-04-16T04:27:51;7.90;99.90
47765;DHT22;33529;49.242;8.670;2023-04-16T04:30:18;7.90;99.90
47765;DHT22;33529;49.242;8.670;2023-04-16T04:32:44;7.90;99.90
47765;DHT22;33529;49.242;8.670;2023-04-16T04:35:12;7.90;99.90
47765;DHT22;33529;49.242;8.670;2023-04-16T04:37:40;7.90;99.90
47765;DHT22;33529;49.242;8.670;2023-04-16T04:40:13;7.90;99.90
47765;DHT22;33529;49.242;8.670;2023-04-16T04:42:40;7.90;99.90
47765;DHT22;33529;49.242;8.670;2023-04-16T04:45:08;7.90;99.90
47765;DHT22;33529;49.242;8.670;2023-04-16T04:47:36;8.00;99.90
47765;DHT22;33529;49.242;8.670;2023-04-16T04:50:03;7.90;99.90
47765;DHT22;33529;49.242;8.670;2023-04-16T04:52:31;7.90;99.90
47765;DHT22;33529;49.242;8.670;2023-04-16T04:54:59;7.90;99.90
47765;DHT22;33529;49.242;8.670;2023-04-16T04:57:26;7.90;99.90
47765;DHT22;33529;49.242;8.670;2023-04-16T04:59:54;7.90;99.90
47765;DHT22;33529;49.242;8.670;2023-04-16T05:02:21;8.00;99.90
47765;DHT22;33529;49.242;8.670;2023-04-16T05:04:48;8.00;99.90
47765;DHT22;33529;49.242;8.670;2023-04-16T05:07:15;8.00;99.90
47765;DHT22;33529;49.242;8.670;2023-04-16T05:09:42;8.00;99.90
47765;DHT22;33529;49.242;8.670;2023-04-16T05:12:09;7.90;99.90
47765;DHT22;33529;49.242;8.670;2023-04-16T05:14:36;7.90;99.90
47765;DHT22;33529;49.242;8.670;2023-04-16T05:17:02;8.00;99.90
47765;DHT22;33529;49.242;8.670;2023-04-16T05:19:29;8.00;99.90
47765;DHT22;33529;49.242;8.670;2023-04-16T05:21:56;8.00;99.90
47765;DHT22;33529;49.242;8.670;2023-04-16T05:24:23;8.00;99.90
47765;DHT22;33529;49.242;8.670;2023-04-16T05:26:49;8.00;99.90
47765;DHT22;33529;49.242;8.670;2023-04-16T05:29:16;8.00;99.90
47765;DHT22;33529;49.242;8.670;2023-04-16T05:31:43;8.00;99.90
47765;DHT22;33529;49.242;8.670;2023-04-16T05:34:10;8.00;99.90
47765;DHT22;33529;49.242;8.670;2023-04-16T05:36:37;8.00;99.90
47765;DHT22;33529;49.242;8.670;2023-04-16T05:39:03;8.00;99.90
47765;DHT22;33529;49.242;8.670;2023-04-16T05:41:30;8.00;99.90
47765;DHT22;33529;49.242;8.670;2023-04-16T05:43:57;8.10;99.90
47765;DHT22;33529;49.242;8.670;2023-04-16T05:46:24;8.00;99.90
47765;DHT22;33529;49.242;8.670;2023-04-16T05:48:51;8.10;99.90
47765;DHT22;33529;49.242;8.670;2023-04-16T05:51:18;8.20;99.90
47765;DHT22;33529;49.242;8.670;2023-04-16T05:53:45;8.20;99.90
47765;DHT22;33529;49.242;8.670;2023-04-16T05:56:12;8.20;99.90
47765;DHT22;33529;49.242;8.670;2023-04-16T05:58:38;8.20;99.90
47765;DHT22;33529;49.242;8.670;2023-04-16T06:01:05;8.20;99.90
47765;DHT22;33529;49.242;8.670;2023-04-16T06:03:33;8.20;99.90
47765;DHT22;33529;49.242;8.670;2023-04-16T06:05:59;8.30;99.90
47765;DHT22;33529;49.242;8.670;2023-04-16T06:08:26;8.40;99.90
47765;DHT22;33529;49.242;8.670;2023-04-16T06:10:53;8.40;99.90
47765;DHT22;33529;49.242;8.670;2023-04-16T06:13:20;8.50;99.90
47765;DHT22;33529;49.242;8.670;2023-04-16T06:15:46;8.50;99.90
47765;DHT22;33529;49.242;8.670;2023-04-16T06:18:13;8.50;99.90
47765;DHT22;33529;49.242;8.670;2023-04-16T06:20:40;8.50;99.90
47765;DHT22;33529;49.242;8.670;2023-04-16T06:23:07;8.50;99.90
47765;DHT22;33529;49.242;8.670;2023-04-16T06:25:34;8.40;99.90
47765;DHT22;33529;49.242;8.670;2023-04-16T06:28:01;8.40;99.90
47765;DHT22;33529;49.242;8.670;2023-04-16T06:30:27;8.50;99.90
47765;DHT22;33529;49.242;8.670;2023-04-16T06:32:54;8.40;99.90
47765;DHT22;33529;49.242;8.670;2023-04-16T06:35:21;8.40;99.90
47765;DHT22;33529;49.242;8.670;2023-04-16T06:37:48;8.40;99.90
47765;DHT22;33529;49.242;8.670;2023-04-16T06:40:15;8.40;99.90
47765;DHT22;33529;49.242;8.670;2023-04-16T06:42:42;8.40;99.90
47765;DHT22;33529;49.242;8.670;2023-04-16T06:45:11;8.40;99.90
47765;DHT22;33529;49.242;8.670;2023-04-16T06:47:38;8.40;99.90
47765;DHT22;33529;49.242;8.670;2023-04-16T06:50:05;8.40;99.90
47765;DHT22;33529;49.242;8.670;2023-04-16T06:52:32;8.40;99.90
47765;DHT22;33529;49.242;8.670;2023-04-16T06:54:59;8.40;99.90
47765;DHT22;33529;49.242;8.670;2023-04-16T06:57:26;8.40;99.90
47765;DHT22;33529;49.242;8.670;2023-04-16T06:59:52;8.40;99.90
47765;DHT22;33529;49.242;8.670;2023-04-16T07:02:19;8.40;99.90
47765;DHT22;33529;49.242;8.670;2023-04-16T07:04:46;8.50;99.90
47765;DHT22;33529;49.242;8.670;2023-04-16T07:07:13;8.50;99.90
47765;DHT22;33529;49.242;8.670;2023-04-16T07:09:40;8.60;99.90
47765;DHT22;33529;49.242;8.670;2023-04-16T07:12:06;8.60;99.90
47765;DHT22;33529;49.242;8.670;2023-04-16T07:14:33;8.70;99.90
47765;DHT22;33529;49.242;8.670;2023-04-16T07:17:00;8.60;99.90
47765;DHT22;33529;49.242;8.670;2023-04-16T07:19:27;8.70;99.90
47765;DHT22;33529;49.242;8.670;2023-04-16T07:21:58;8.70;99.90
47765;DHT22;33529;49.242;8.670;2023-04-16T07:24:25;8.70;99.90
47765;DHT22;33529;49.242;8.670;2023-04-16T07:26:52;8.70;99.90
47765;DHT22;33529;49.242;8.670;2023-04-16T07:29:19;8.70;99.90
47765;DHT22;33529;49.242;8.670;2023-04-16T07:31:46;8.70;99.90
47765;DHT22;33529;49.242;8.670;2023-04-16T07:34:12;8.70;99.90
47765;DHT22;33529;49.242;8.670;2023-04-16T07:36:39;8.70;99.90
47765;DHT22;33529;49.242;8.670;2023-04-16T07:39:06;8.60;99.90
47765;DHT22;33529;49.242;8.670;2023-04-16T07:41:34;8.70;99.90
47765;DHT22;33529;49.242;8.670;2023-04-16T07:44:02;8.60;99.90
47765;DHT22;33529;49.242;8.670;2023-04-16T07:46:28;8.60;99.90
47765;DHT22;33529;49.242;8.670;2023-04-16T07:49:11;8.60;99.90
47765;DHT22;33529;49.242;8.670;2023-04-16T07:51:38;8.60;99.90
47765;DHT22;33529;49.242;8.670;2023-04-16T07:54:05;8.70;99.90
47765;DHT22;33529;49.242;8.670;2023-04-16T07:56:31;8.70;99.90
47765;DHT22;33529;49.242;8.670;2023-04-16T07:58:58;8.70;99.90
47765;DHT22;33529;49.242;8.670;2023-04-16T08:01:40;8.80;99.90
47765;DHT22;33529;49.242;8.670;2023-04-16T08:04:07;8.90;99.90
47765;DHT22;33529;49.242;8.670;2023-04-16T08:06:34;9.00;99.90
47765;DHT22;33529;49.242;8.670;2023-04-16T08:09:01;9.00;99.90
47765;DHT22;33529;49.242;8.670;2023-04-16T08:11:27;9.00;99.90
47765;DHT22;33529;49.242;8.670;2023-04-16T08:13:54;9.10;99.90
47765;DHT22;33529;49.242;8.670;2023-04-16T08:16:21;9.20;99.90
47765;DHT22;33529;49.242;8.670;2023-04-16T08:18:48;9.40;99.90
47765;DHT22;33529;49.242;8.670;2023-04-16T08:21:15;9.30;99.90
47765;DHT22;33529;49.242;8.670;2023-04-16T08:23:42;9.20;99.90
47765;DHT22;33529;49.242;8.670;2023-04-16T08:26:09;9.20;99.90
47765;DHT22;33529;49.242;8.670;2023-04-16T08:28:35;9.10;99.90
47765;DHT22;33529;49.242;8.670;2023-04-16T08:31:02;9.00;99.90
47765;DHT22;33529;49.242;8.670;2023-04-16T08:33:29;9.00;99.90
47765;DHT22;33529;49.242;8.670;2023-04-16T08:35:56;9.00;99.90
47765;DHT22;33529;49.242;8.670;2023-04-16T08:38:22;9.00;99.90
47765;DHT22;33529;49.242;8.670;2023-04-16T08:40:49;9.00;99.90
47765;DHT22;33529;49.242;8.670;2023-04-16T08:43:18;9.00;99.90
47765;DHT22;33529;49.242;8.670;2023-04-16T08:45:46;9.00;99.90
47765;DHT22;33529;49.242;8.670;2023-04-16T08:48:14;9.10;99.90
47765;DHT22;33529;49.242;8.670;2023-04-16T08:50:42;9.00;99.90
47765;DHT22;33529;49.242;8.670;2023-04-16T08:53:15;9.00;99.90
47765;DHT22;33529;49.242;8.670;2023-04-16T08:55:48;9.00;99.90
47765;DHT22;33529;49.242;8.670;2023-04-16T08:58:21;9.00;99.90
47765;DHT22;33529;49.242;8.670;2023-04-16T09:00:48;9.00;99.90
47765;DHT22;33529;49.242;8.670;2023-04-16T09:03:15;9.00;99.90
47765;DHT22;33529;49.242;8.670;2023-04-16T09:05:42;9.00;99.90
47765;DHT22;33529;49.242;8.670;2023-04-16T09:08:09;9.00;99.90
47765;DHT22;33529;49.242;8.670;2023-04-16T09:10:36;9.10;99.90
47765;DHT22;33529;49.242;8.670;2023-04-16T09:13:03;9.10;99.90
47765;DHT22;33529;49.242;8.670;2023-04-16T09:15:31;9.10;99.90
47765;DHT22;33529;49.242;8.670;2023-04-16T09:18:01;9.00;99.90
47765;DHT22;33529;49.242;8.670;2023-04-16T09:20:28;9.10;99.90
47765;DHT22;33529;49.242;8.670;2023-04-16T09:22:55;9.10;99.90
47765;DHT22;33529;49.242;8.670;2023-04-16T09:25:24;9.10;99.90
47765;DHT22;33529;49.242;8.670;2023-04-16T09:27:51;9.10;99.90
47765;DHT22;33529;49.242;8.670;2023-04-16T09:32:48;9.10;99.90
47765;DHT22;33529;49.242;8.670;2023-04-16T09:35:17;9.20;99.90
47765;DHT22;33529;49.242;8.670;2023-04-16T09:37:54;9.20;99.90
47765;DHT22;33529;49.242;8.670;2023-04-16T09:40:26;9.20;99.90
47765;DHT22;33529;49.242;8.670;2023-04-16T09:42:56;9.20;99.90
47765;DHT22;33529;49.242;8.670;2023-04-16T09:45:23;9.20;99.90
47765;DHT22;33529;49.242;8.670;2023-04-16T09:47:50;9.10;99.90
47765;DHT22;33529;49.242;8.670;2023-04-16T09:50:18;9.10;99.90
47765;DHT22;33529;49.242;8.670;2023-04-16T09:52:48;9.00;99.90
47765;DHT22;33529;49.242;8.670;2023-04-16T09:55:22;9.00;99.90
47765;DHT22;33529;49.242;8.670;2023-04-16T09:57:57;9.00;99.90
47765;DHT22;33529;49.242;8.670;2023-04-16T10:00:25;8.90;99.90
47765;DHT22;33529;49.242;8.670;2023-04-16T10:03:02;8.80;99.90
47765;DHT22;33529;49.242;8.670;2023-04-16T10:05:30;8.80;99.90
47765;DHT22;33529;49.242;8.670;2023-04-16T10:07:59;8.90;99.90
47765;DHT22;33529;49.242;8.670;2023-04-16T10:10:28;8.90;99.90
47765;DHT22;33529;49.242;8.670;2023-04-16T10:12:55;8.80;99.90
47765;DHT22;33529;49.242;8.670;2023-04-16T10:15:22;8.80;99.90
47765;DHT22;33529;49.242;8.670;2023-04-16T10:17:50;8.80;99.90
47765;DHT22;33529;49.242;8.670;2023-04-16T10:20:17;8.80;99.90
47765;DHT22;33529;49.242;8.670;2023-04-16T10:22:44;8.80;99.90
47765;DHT22;33529;49.242;8.670;2023-04-16T10:25:12;8.80;99.90
47765;DHT22;33529;49.242;8.670;2023-04-16T10:27:39;8.90;99.90
47765;DHT22;33529;49.242;8.670;2023-04-16T10:30:07;8.80;99.90
47765;DHT22;33529;49.242;8.670;2023-04-16T10:32:35;8.80;99.90
47765;DHT22;33529;49.242;8.670;2023-04-16T10:35:03;8.80;99.90
47765;DHT22;33529;49.242;8.670;2023-04-16T10:37:31;8.70;99.90
47765;DHT22;33529;49.242;8.670;2023-04-16T10:39:58;8.70;99.90
47765;DHT22;33529;49.242;8.670;2023-04-16T10:42:25;8.70;99.90
47765;DHT22;33529;49.242;8.670;2023-04-16T10:44:53;8.70;99.90
47765;DHT22;33529;49.242;8.670;2023-04-16T10:47:23;8.70;99.90
47765;DHT22;33529;49.242;8.670;2023-04-16T10:49:51;8.70;99.90
47765;DHT22;33529;49.242;8.670;2023-04-16T10:52:18;8.70;99.90
47765;DHT22;33529;49.242;8.670;2023-04-16T10:54:46;8.70;99.90
47765;DHT22;33529;49.242;8.670;2023-04-16T10:57:17;8.70;99.90
47765;DHT22;33529;49.242;8.670;2023-04-16T10:59:45;8.60;99.90
47765;DHT22;33529;49.242;8.670;2023-04-16T11:02:17;8.60;99.90
47765;DHT22;33529;49.242;8.670;2023-04-16T11:04:46;8.60;99.90
47765;DHT22;33529;49.242;8.670;2023-04-16T11:07:19;8.70;99.90
47765;DHT22;33529;49.242;8.670;2023-04-16T11:10:04;8.70;99.90
47765;DHT22;33529;49.242;8.670;2023-04-16T11:12:32;8.70;99.90
47765;DHT22;33529;49.242;8.670;2023-04-16T11:17:41;8.70;99.90
47765;DHT22;33529;49.242;8.670;2023-04-16T11:22:54;8.70;99.90
47765;DHT22;33529;49.242;8.670;2023-04-16T11:25:22;8.60;99.90
47765;DHT22;33529;49.242;8.670;2023-04-16T11:27:51;8.70;99.90
47765;DHT22;33529;49.242;8.670;2023-04-16T11:30:26;8.70;99.90
47765;DHT22;33529;49.242;8.670;2023-04-16T11:32:54;8.70;99.90
47765;DHT22;33529;49.242;8.670;2023-04-16T11:35:21;8.80;99.90
47765;DHT22;33529;49.242;8.670;2023-04-16T11:37:48;8.80;99.90
47765;DHT22;33529;49.242;8.670;2023-04-16T11:40:14;8.80;99.90
47765;DHT22;33529;49.242;8.670;2023-04-16T11:42:42;8.90;99.90
47765;DHT22;33529;49.242;8.670;2023-04-16T11:45:10;8.90;99.90
47765;DHT22;33529;49.242;8.670;2023-04-16T11:47:46;9.00;99.90
47765;DHT22;33529;49.242;8.670;2023-04-16T11:50:24;9.00;99.90
47765;DHT22;33529;49.242;8.670;2023-04-16T11:52:53;8.90;99.90
47765;DHT22;33529;49.242;8.670;2023-04-16T11:55:21;8.90;99.90
47765;DHT22;33529;49.242;8.670;2023-04-16T11:57:48;8.90;99.90
47765;DHT22;33529;49.242;8.670;2023-04-16T12:00:17;9.00;99.90
47765;DHT22;33529;49.242;8.670;2023-04-16T12:05:33;9.10;99.90
47765;DHT22;33529;49.242;8.670;2023-04-16T12:08:03;9.00;99.90
47765;DHT22;33529;49.242;8.670;2023-04-16T12:10:32;9.10;99.90
47765;DHT22;33529;49.242;8.670;2023-04-16T12:13:12;9.10;99.90
47765;DHT22;33529;49.242;8.670;2023-04-16T12:15:53;9.20;99.90
47765;DHT22;33529;49.242;8.670;2023-04-16T12:18:23;9.20;99.90
47765;DHT22;33529;49.242;8.670;2023-04-16T12:20:51;9.30;99.90
47765;DHT22;33529;49.242;8.670;2023-04-16T12:23:29;9.30;99.90
47765;DHT22;33529;49.242;8.670;2023-04-16T12:25:57;9.40;99.90
47765;DHT22;33529;49.242;8.670;2023-04-16T12:28:33;9.50;99.90
47765;DHT22;33529;49.242;8.670;2023-04-16T12:31:01;9.50;99.90
47765;DHT22;33529;49.242;8.670;2023-04-16T12:33:29;9.50;99.90
47765;DHT22;33529;49.242;8.670;2023-04-16T12:35:58;9.50;99.90
47765;DHT22;33529;49.242;8.670;2023-04-16T12:38:26;9.50;99.90
47765;DHT22;33529;49.242;8.670;2023-04-16T12:40:53;9.60;99.90
47765;DHT22;33529;49.242;8.670;2023-04-16T12:43:23;9.60;99.90
47765;DHT22;33529;49.242;8.670;2023-04-16T12:45:50;9.60;99.90
47765;DHT22;33529;49.242;8.670;2023-04-16T12:48:17;9.50;99.90
47765;DHT22;33529;49.242;8.670;2023-04-16T12:50:43;9.50;99.90
47765;DHT22;33529;49.242;8.670;2023-04-16T12:53:11;9.50;99.90
47765;DHT22;33529;49.242;8.670;2023-04-16T12:55:38;9.50;99.90
47765;DHT22;33529;49.242;8.670;2023-04-16T12:58:05;9.50;99.90
47765;DHT22;33529;49.242;8.670;2023-04-16T13:00:32;9.60;99.90
47765;DHT22;33529;49.242;8.670;2023-04-16T13:02:59;9.60;99.90
47765;DHT22;33529;49.242;8.670;2023-04-16T13:05:26;9.70;99.90
47765;DHT22;33529;49.242;8.670;2023-04-16T13:07:53;9.60;99.90
47765;DHT22;33529;49.242;8.670;2023-04-16T13:10:20;9.60;99.90
47765;DHT22;33529;49.242;8.670;2023-04-16T13:12:47;9.70;99.90
47765;DHT22;33529;49.242;8.670;2023-04-16T13:15:14;9.80;99.90
47765;DHT22;33529;49.242;8.670;2023-04-16T13:17:41;9.80;99.90
47765;DHT22;33529;49.242;8.670;2023-04-16T13:20:09;9.80;99.90
47765;DHT22;33529;49.242;8.670;2023-04-16T13:22:36;9.70;99.90
47765;DHT22;33529;49.242;8.670;2023-04-16T13:25:03;9.80;99.90
47765;DHT22;33529;49.242;8.670;2023-04-16T13:27:30;9.70;99.90
47765;DHT22;33529;49.242;8.670;2023-04-16T13:29:58;9.60;99.90
47765;DHT22;33529;49.242;8.670;2023-04-16T13:32:25;9.70;99.90
47765;DHT22;33529;49.242;8.670;2023-04-16T13:34:52;9.70;99.90
47765;DHT22;33529;49.242;8.670;2023-04-16T13:37:18;9.80;99.90
47765;DHT22;33529;49.242;8.670;2023-04-16T13:39:45;9.70;99.90
47765;DHT22;33529;49.242;8.670;2023-04-16T13:42:12;9.80;99.90
47765;DHT22;33529;49.242;8.670;2023-04-16T13:44:39;9.80;99.90
47765;DHT22;33529;49.242;8.670;2023-04-16T13:47:06;9.70;99.90
47765;DHT22;33529;49.242;8.670;2023-04-16T13:49:33;9.70;99.90
47765;DHT22;33529;49.242;8.670;2023-04-16T13:52:02;9.70;99.90
47765;DHT22;33529;49.242;8.670;2023-04-16T13:54:29;9.70;99.90
47765;DHT22;33529;49.242;8.670;2023-04-16T13:56:55;9.60;99.90
47765;DHT22;33529;49.242;8.670;2023-04-16T13:59:22;9.70;99.90
47765;DHT22;33529;49.242;8.670;2023-04-16T14:01:50;9.70;99.90
47765;DHT22;33529;49.242;8.670;2023-04-16T14:04:16;9.80;99.90
47765;DHT22;33529;49.242;8.670;2023-04-16T14:06:43;9.70;99.90
47765;DHT22;33529;49.242;8.670;2023-04-16T14:09:10;9.80;99.90
47765;DHT22;33529;49.242;8.670;2023-04-16T14:11:37;9.70;99.90
47765;DHT22;33529;49.242;8.670;2023-04-16T14:14:04;9.80;99.90
47765;DHT22;33529;49.242;8.670;2023-04-16T14:16:31;9.70;99.90
47765;DHT22;33529;49.242;8.670;2023-04-16T14:19:01;9.70;99.90
47765;DHT22;33529;49.242;8.670;2023-04-16T14:21:28;9.70;99.90
47765;DHT22;33529;49.242;8.670;2023-04-16T14:23:54;9.70;99.90
47765;DHT22;33529;49.242;8.670;2023-04-16T14:26:22;9.70;99.90
47765;DHT22;33529;49.242;8.670;2023-04-16T14:28:49;9.70;99.90
47765;DHT22;33529;49.242;8.670;2023-04-16T14:31:16;9.70;99.90
47765;DHT22;33529;49.242;8.670;2023-04-16T14:33:43;9.70;99.90
47765;DHT22;33529;49.242;8.670;2023-04-16T14:36:10;9.70;99.90
47765;DHT22;33529;49.242;8.670;2023-04-16T14:38:37;9.70;99.90
47765;DHT22;33529;49.242;8.670;2023-04-16T14:41:04;9.70;99.90
47765;DHT22;33529;49.242;8.670;2023-04-16T14:43:31;9.70;99.90
47765;DHT22;33529;49.242;8.670;2023-04-16T14:45:57;9.70;99.90
47765;DHT22;33529;49.242;8.670;2023-04-16T14:48:25;9.70;99.90
47765;DHT22;33529;49.242;8.670;2023-04-16T14:50:52;9.70;99.90
47765;DHT22;33529;49.242;8.670;2023-04-16T14:53:19;9.80;99.90
47765;DHT22;33529;49.242;8.670;2023-04-16T14:55:46;9.80;99.90
47765;DHT22;33529;49.242;8.670;2023-04-16T14:58:13;9.80;99.90
47765;DHT22;33529;49.242;8.670;2023-04-16T15:00:39;9.80;99.90
47765;DHT22;33529;49.242;8.670;2023-04-16T15:03:06;9.70;99.90
47765;DHT22;33529;49.242;8.670;2023-04-16T15:05:34;9.70;99.90
47765;DHT22;33529;49.242;8.670;2023-04-16T15:08:01;9.80;99.90
47765;DHT22;33529;49.242;8.670;2023-04-16T15:10:28;9.80;99.90
47765;DHT22;33529;49.242;8.670;2023-04-16T15:12:55;9.80;99.90
47765;DHT22;33529;49.242;8.670;2023-04-16T15:15:22;9.80;99.90
47765;DHT22;33529;49.242;8.670;2023-04-16T15:17:49;9.80;99.90
47765;DHT22;33529;49.242;8.670;2023-04-16T15:20:16;9.80;99.90
47765;DHT22;33529;49.242;8.670;2023-04-16T15:22:43;9.80;99.90
47765;DHT22;33529;49.242;8.670;2023-04-16T15:25:10;9.80;99.90
47765;DHT22;33529;49.242;8.670;2023-04-16T15:27:37;9.70;99.90
47765;DHT22;33529;49.242;8.670;2023-04-16T15:30:04;9.70;99.90
47765;DHT22;33529;49.242;8.670;2023-04-16T15:32:32;9.80;99.90
47765;DHT22;33529;49.242;8.670;2023-04-16T15:35:00;9.80;99.90
47765;DHT22;33529;49.242;8.670;2023-04-16T15:37:27;9.80;99.90
47765;DHT22;33529;49.242;8.670;2023-04-16T15:39:54;9.90;99.90
47765;DHT22;33529;49.242;8.670;2023-04-16T15:42:22;9.90;99.90
47765;DHT22;33529;49.242;8.670;2023-04-16T15:44:49;10.00;99.90
47765;DHT22;33529;49.242;8.670;2023-04-16T15:47:16;10.00;99.90
47765;DHT22;33529;49.242;8.670;2023-04-16T15:49:42;10.00;99.90
47765;DHT22;33529;49.242;8.670;2023-04-16T15:52:10;10.10;99.90
47765;DHT22;33529;49.242;8.670;2023-04-16T15:54:39;10.00;99.90
47765;DHT22;33529;49.242;8.670;2023-04-16T15:57:06;10.10;99.90
47765;DHT22;33529;49.242;8.670;2023-04-16T15:59:33;10.20;99.90